Time;durP1;ratioP1;P1;durP2;ratioP2;P2;SDS_P1;SDS_P2;PMS_P1;PMS_P2;Temp;Humidity;BMP_temperature;BMP_pressure;BME280_temperature;BME280_humidity;BME280_pressure;Samples;Min_cycle;Max_cycle;Signal;HPM_P1;HPM_P2
2023/10/31 00:01:43;;;;;;;9.77;2.00;;;;;;;;;;5013784;28;20026;-89
2023/10/31 00:04:08;;;;;;;9.82;1.98;;;;;;;;;;5014803;28;20271;-90
2023/10/31 00:06:34;;;;;;;6.68;1.52;;;;;;;;;;5013594;28;20107;-90
2023/10/31 00:08:59;;;;;;;8.57;1.90;;;;;;;;;;5014078;28;20491;-90
2023/10/31 00:11:24;;;;;;;6.38;2.17;;;;;;;;;;5013461;28;20126;-90
2023/10/31 00:13:49;;;;;;;8.48;2.13;;;;;;;;;;5014520;28;20108;-90
2023/10/31 00:16:15;;;;;;;7.32;1.85;;;;;;;;;;5013630;28;20076;-90
2023/10/31 00:18:40;;;;;;;8.10;1.95;;;;;;;;;;5014649;28;20017;-90
2023/10/31 00:21:05;;;;;;;8.82;2.08;;;;;;;;;;5013575;28;20488;-90
2023/10/31 00:23:30;;;;;;;9.60;2.13;;;;;;;;;;5013547;28;20017;-91
2023/10/31 00:25:56;;;;;;;6.68;1.40;;;;;;;;;;5014537;28;20024;-92
2023/10/31 00:28:21;;;;;;;8.10;1.63;;;;;;;;;;5013327;28;20420;-90
2023/10/31 00:30:46;;;;;;;7.35;2.40;;;;;;;;;;5013463;28;20029;-88
2023/10/31 00:33:12;;;;;;;4.88;1.52;;;;;;;;;;5013159;28;20093;-89
2023/10/31 00:35:37;;;;;;;7.75;1.95;;;;;;;;;;5014255;28;20096;-90
2023/10/31 00:38:03;;;;;;;8.60;2.33;;;;;;;;;;5012407;28;20022;-90
2023/10/31 00:40:28;;;;;;;5.00;1.60;;;;;;;;;;5014259;28;20026;-90
2023/10/31 00:42:53;;;;;;;4.18;1.50;;;;;;;;;;5014217;28;20029;-90
2023/10/31 00:45:19;;;;;;;4.30;1.10;;;;;;;;;;5013224;28;20029;-90
2023/10/31 00:47:44;;;;;;;6.82;1.70;;;;;;;;;;5013907;28;20156;-91
2023/10/31 00:50:09;;;;;;;8.98;2.28;;;;;;;;;;5012958;28;20018;-90
2023/10/31 00:52:35;;;;;;;4.22;1.95;;;;;;;;;;5012168;28;20415;-90
2023/10/31 00:55:00;;;;;;;5.68;1.70;;;;;;;;;;5012778;28;20040;-90
2023/10/31 00:57:25;;;;;;;9.93;2.15;;;;;;;;;;5013050;28;20361;-90
2023/10/31 00:59:50;;;;;;;6.40;1.25;;;;;;;;;;5012990;28;20029;-91
2023/10/31 01:02:16;;;;;;;14.50;1.87;;;;;;;;;;5013743;28;20026;-89
2023/10/31 01:04:41;;;;;;;6.30;1.80;;;;;;;;;;5013789;28;20265;-90
2023/10/31 01:07:06;;;;;;;6.75;1.70;;;;;;;;;;5013298;28;20377;-89
2023/10/31 01:09:31;;;;;;;4.35;1.42;;;;;;;;;;5013651;28;20065;-89
2023/10/31 01:11:57;;;;;;;8.68;1.83;;;;;;;;;;5012284;28;20029;-90
2023/10/31 01:14:22;;;;;;;6.72;1.42;;;;;;;;;;5012398;28;20033;-90
2023/10/31 01:16:47;;;;;;;9.27;1.65;;;;;;;;;;5013682;28;20460;-90
2023/10/31 01:19:12;;;;;;;4.55;1.40;;;;;;;;;;5013441;28;20097;-90
2023/10/31 01:21:38;;;;;;;6.93;1.92;;;;;;;;;;5011631;28;20109;-90
2023/10/31 01:24:03;;;;;;;9.55;1.67;;;;;;;;;;5013340;28;20527;-90
2023/10/31 01:26:28;;;;;;;6.40;2.45;;;;;;;;;;5013286;28;20093;-90
2023/10/31 01:28:53;;;;;;;6.18;1.50;;;;;;;;;;5012225;28;20034;-90
2023/10/31 01:31:19;;;;;;;5.90;1.58;;;;;;;;;;5013378;28;20014;-90
2023/10/31 01:33:45;;;;;;;10.63;1.60;;;;;;;;;;5012085;28;20030;-88
2023/10/31 01:36:12;;;;;;;8.77;2.15;;;;;;;;;;5013042;28;20152;-88
2023/10/31 01:38:37;;;;;;;5.10;1.40;;;;;;;;;;5013300;28;20017;-88
2023/10/31 01:41:02;;;;;;;7.22;1.88;;;;;;;;;;5013249;28;20029;-88
2023/10/31 01:43:37;;;;;;;5.65;1.13;;;;;;;;;;5011084;28;20527;-88
2023/10/31 01:46:03;;;;;;;10.40;1.45;;;;;;;;;;4992369;28;20029;-89
2023/10/31 01:48:32;;;;;;;7.93;1.45;;;;;;;;;;4993988;28;20027;-88
2023/10/31 01:50:58;;;;;;;4.72;1.48;;;;;;;;;;4993448;28;20017;-89
2023/10/31 01:53:24;;;;;;;6.38;1.10;;;;;;;;;;5008388;28;20030;-89
2023/10/31 01:55:50;;;;;;;4.50;1.08;;;;;;;;;;4993283;28;20511;-88
2023/10/31 01:58:15;;;;;;;5.05;1.23;;;;;;;;;;4994457;28;20056;-89
2023/10/31 02:00:42;;;;;;;2.75;0.90;;;;;;;;;;5012873;28;20381;-89
2023/10/31 02:03:07;;;;;;;4.65;1.98;;;;;;;;;;5012692;28;20064;-89
2023/10/31 02:05:34;;;;;;;5.95;1.63;;;;;;;;;;5012493;28;20018;-88
2023/10/31 02:07:59;;;;;;;5.55;1.25;;;;;;;;;;5012548;28;20125;-89
2023/10/31 02:10:24;;;;;;;3.92;1.17;;;;;;;;;;5012668;28;20110;-89
2023/10/31 02:12:50;;;;;;;8.17;1.40;;;;;;;;;;5011451;28;20057;-88
2023/10/31 02:15:15;;;;;;;9.30;1.27;;;;;;;;;;5012447;28;20342;-89
2023/10/31 02:17:40;;;;;;;1.85;0.85;;;;;;;;;;5012791;28;20266;-89
2023/10/31 02:20:06;;;;;;;3.43;1.23;;;;;;;;;;5012561;28;20068;-88
2023/10/31 02:22:31;;;;;;;3.20;1.17;;;;;;;;;;5012472;28;20343;-89
2023/10/31 02:24:56;;;;;;;3.20;1.20;;;;;;;;;;5011189;28;20022;-89
2023/10/31 02:27:21;;;;;;;4.37;1.27;;;;;;;;;;5012557;28;20037;-89
2023/10/31 02:29:46;;;;;;;5.60;1.30;;;;;;;;;;5011480;28;20317;-88
2023/10/31 02:32:12;;;;;;;5.70;1.03;;;;;;;;;;5012468;28;20426;-90
2023/10/31 02:34:37;;;;;;;3.90;1.05;;;;;;;;;;5012092;28;20819;-89
2023/10/31 02:37:03;;;;;;;5.32;1.10;;;;;;;;;;5012510;28;20021;-88
2023/10/31 02:39:28;;;;;;;4.10;1.42;;;;;;;;;;5011685;28;20079;-88
2023/10/31 02:41:53;;;;;;;4.37;0.90;;;;;;;;;;5009508;28;20129;-89
2023/10/31 02:44:18;;;;;;;3.80;0.97;;;;;;;;;;5019904;28;20312;-88
2023/10/31 02:46:43;;;;;;;5.53;1.00;;;;;;;;;;5031866;28;20286;-89
2023/10/31 02:49:09;;;;;;;2.35;0.80;;;;;;;;;;5023040;28;20271;-88
2023/10/31 02:51:35;;;;;;;6.45;1.30;;;;;;;;;;5012428;28;20682;-88
2023/10/31 02:54:00;;;;;;;2.63;1.00;;;;;;;;;;5011884;28;20026;-89
2023/10/31 02:56:25;;;;;;;3.50;0.80;;;;;;;;;;5012194;28;20040;-89
2023/10/31 02:58:50;;;;;;;4.55;1.05;;;;;;;;;;5010601;28;20270;-88
2023/10/31 03:01:17;;;;;;;4.78;1.05;;;;;;;;;;5012022;28;20053;-89
2023/10/31 03:03:43;;;;;;;3.38;1.10;;;;;;;;;;5010956;28;20045;-89
2023/10/31 03:06:08;;;;;;;8.50;0.90;;;;;;;;;;5012013;28;20056;-88
2023/10/31 03:08:33;;;;;;;3.17;1.20;;;;;;;;;;5010824;28;20295;-89
2023/10/31 03:10:58;;;;;;;2.77;0.67;;;;;;;;;;5011966;28;20290;-88
2023/10/31 03:13:23;;;;;;;4.30;1.03;;;;;;;;;;5011807;28;20365;-89
2023/10/31 03:15:49;;;;;;;2.22;0.80;;;;;;;;;;5011978;28;20606;-89
2023/10/31 03:18:14;;;;;;;2.88;0.85;;;;;;;;;;5011810;28;20022;-89
2023/10/31 03:20:39;;;;;;;4.65;1.10;;;;;;;;;;5013447;28;20014;-89
2023/10/31 03:23:05;;;;;;;2.33;1.30;;;;;;;;;;5015744;28;20072;-89
2023/10/31 03:25:30;;;;;;;4.50;1.20;;;;;;;;;;5015759;28;20100;-89
2023/10/31 03:27:55;;;;;;;4.97;1.13;;;;;;;;;;5015872;28;20401;-89
2023/10/31 03:30:20;;;;;;;1.27;0.70;;;;;;;;;;5014593;28;20610;-88
2023/10/31 03:32:45;;;;;;;4.33;0.90;;;;;;;;;;5015754;28;20255;-89
2023/10/31 03:35:11;;;;;;;5.77;1.00;;;;;;;;;;5015397;28;20294;-88
2023/10/31 03:37:39;;;;;;;10.10;1.60;;;;;;;;;;5015675;28;20255;-88
2023/10/31 03:40:05;;;;;;;9.65;1.50;;;;;;;;;;5015501;28;20358;-89
2023/10/31 03:42:30;;;;;;;8.68;1.40;;;;;;;;;;5015333;28;20148;-89
2023/10/31 03:44:55;;;;;;;4.82;1.27;;;;;;;;;;5014266;28;20380;-89
2023/10/31 03:47:20;;;;;;;2.67;0.97;;;;;;;;;;5015244;28;20040;-89
2023/10/31 03:49:46;;;;;;;6.33;1.20;;;;;;;;;;5015459;28;20696;-89
2023/10/31 03:52:11;;;;;;;6.80;1.30;;;;;;;;;;5015424;28;20658;-88
2023/10/31 03:54:36;;;;;;;5.40;1.45;;;;;;;;;;5015063;28;20868;-89
2023/10/31 03:57:01;;;;;;;2.00;1.20;;;;;;;;;;5015129;28;20045;-89
2023/10/31 03:59:26;;;;;;;5.93;1.30;;;;;;;;;;5014267;28;20641;-89
2023/10/31 04:01:52;;;;;;;6.67;1.70;;;;;;;;;;5014992;28;20764;-89
2023/10/31 04:04:17;;;;;;;6.93;1.27;;;;;;;;;;5015020;28;20263;-89
2023/10/31 04:06:43;;;;;;;4.37;0.87;;;;;;;;;;5015063;28;20464;-88
2023/10/31 04:09:09;;;;;;;6.43;1.15;;;;;;;;;;5014816;28;20321;-89
2023/10/31 04:11:35;;;;;;;3.50;0.75;;;;;;;;;;5014902;28;20050;-88
2023/10/31 04:14:00;;;;;;;7.88;1.63;;;;;;;;;;5012790;28;20425;-88
2023/10/31 04:16:25;;;;;;;5.83;1.40;;;;;;;;;;5014658;28;20021;-88
2023/10/31 04:18:50;;;;;;;3.27;1.03;;;;;;;;;;5014740;28;20608;-88
2023/10/31 04:21:15;;;;;;;3.90;0.80;;;;;;;;;;5013483;28;20756;-88
2023/10/31 04:23:41;;;;;;;4.60;1.13;;;;;;;;;;5014747;28;20266;-89
2023/10/31 04:26:06;;;;;;;4.03;1.33;;;;;;;;;;5014703;28;20061;-88
2023/10/31 04:28:31;;;;;;;4.43;1.13;;;;;;;;;;5013769;28;20030;-88
2023/10/31 04:30:56;;;;;;;3.80;0.77;;;;;;;;;;5014360;28;20267;-89
2023/10/31 04:33:22;;;;;;;8.20;1.70;;;;;;;;;;5012561;28;20290;-88
2023/10/31 04:35:47;;;;;;;5.68;1.40;;;;;;;;;;5014590;28;20275;-88
2023/10/31 04:38:12;;;;;;;6.03;1.75;;;;;;;;;;5014356;28;20076;-89
2023/10/31 04:40:37;;;;;;;3.80;0.97;;;;;;;;;;5014199;28;20021;-88
2023/10/31 04:43:03;;;;;;;9.80;1.90;;;;;;;;;;5014339;28;20259;-88
2023/10/31 04:45:28;;;;;;;4.93;1.27;;;;;;;;;;5014428;28;20263;-89
2023/10/31 04:47:53;;;;;;;5.00;1.48;;;;;;;;;;5012728;28;20535;-89
2023/10/31 04:50:18;;;;;;;3.92;1.15;;;;;;;;;;5012190;28;20026;-88
2023/10/31 04:52:43;;;;;;;4.70;1.00;;;;;;;;;;5012893;28;20384;-89
2023/10/31 04:55:09;;;;;;;3.27;0.87;;;;;;;;;;5013997;28;20030;-89
2023/10/31 04:57:34;;;;;;;3.85;1.40;;;;;;;;;;5014063;28;20613;-89
2023/10/31 04:59:59;;;;;;;10.02;1.48;;;;;;;;;;5013905;28;20488;-89
2023/10/31 05:02:25;;;;;;;6.53;1.80;;;;;;;;;;5014169;28;20046;-89
2023/10/31 05:04:50;;;;;;;10.48;1.63;;;;;;;;;;5012986;28;20060;-88
2023/10/31 05:07:19;;;;;;;6.03;1.10;;;;;;;;;;5012653;28;20024;-89
2023/10/31 05:09:44;;;;;;;10.82;1.42;;;;;;;;;;5014115;28;20041;-89
2023/10/31 05:12:09;;;;;;;5.85;1.17;;;;;;;;;;5013715;28;20056;-89
2023/10/31 05:14:35;;;;;;;2.40;1.00;;;;;;;;;;5013638;28;20084;-88
2023/10/31 05:17:00;;;;;;;3.22;1.10;;;;;;;;;;5013860;28;20725;-89
2023/10/31 05:19:25;;;;;;;3.43;1.00;;;;;;;;;;5012419;28;20022;-89
2023/10/31 05:21:51;;;;;;;5.78;1.30;;;;;;;;;;5013455;28;20254;-89
2023/10/31 05:24:16;;;;;;;6.63;1.17;;;;;;;;;;5013506;28;20025;-89
2023/10/31 05:26:42;;;;;;;4.20;1.13;;;;;;;;;;5013644;28;20456;-89
2023/10/31 05:29:08;;;;;;;6.15;1.80;;;;;;;;;;5013587;28;20048;-89
2023/10/31 05:31:33;;;;;;;6.57;1.25;;;;;;;;;;5012253;28;20472;-89
2023/10/31 05:33:58;;;;;;;3.67;1.05;;;;;;;;;;5011179;28;20041;-89
2023/10/31 05:36:24;;;;;;;2.63;1.05;;;;;;;;;;5013337;28;20038;-89
2023/10/31 05:38:49;;;;;;;4.10;1.05;;;;;;;;;;5013398;28;20026;-88
2023/10/31 05:41:15;;;;;;;12.55;1.40;;;;;;;;;;5013419;28;20013;-88
2023/10/31 05:43:41;;;;;;;4.90;1.05;;;;;;;;;;5012868;28;20014;-88
2023/10/31 05:46:06;;;;;;;3.33;1.35;;;;;;;;;;5013310;28;20541;-89
2023/10/31 05:48:31;;;;;;;8.10;1.50;;;;;;;;;;5012213;28;20056;-89
2023/10/31 05:50:56;;;;;;;6.18;1.00;;;;;;;;;;5013094;28;20026;-88
2023/10/31 05:53:22;;;;;;;5.90;1.00;;;;;;;;;;5013136;28;20057;-89
2023/10/31 05:55:47;;;;;;;5.88;1.17;;;;;;;;;;5011756;28;20322;-89
2023/10/31 05:58:12;;;;;;;6.97;1.47;;;;;;;;;;5013058;28;20038;-88
2023/10/31 06:00:38;;;;;;;4.10;1.17;;;;;;;;;;5012966;28;20301;-89
2023/10/31 06:03:03;;;;;;;4.47;0.85;;;;;;;;;;5011919;28;20419;-89
2023/10/31 06:05:28;;;;;;;5.00;1.20;;;;;;;;;;5012775;28;20013;-89
2023/10/31 06:07:53;;;;;;;5.13;1.30;;;;;;;;;;5013037;28;20018;-89
2023/10/31 06:10:18;;;;;;;6.80;1.65;;;;;;;;;;5012789;28;20259;-89
2023/10/31 06:12:44;;;;;;;4.45;1.20;;;;;;;;;;5012655;28;20076;-89
2023/10/31 06:15:09;;;;;;;2.50;1.20;;;;;;;;;;5012930;28;20045;-89
2023/10/31 06:17:34;;;;;;;4.18;1.35;;;;;;;;;;5011761;28;20286;-89
2023/10/31 06:19:59;;;;;;;10.65;1.67;;;;;;;;;;5012572;28;20033;-90
2023/10/31 06:22:26;;;;;;;4.90;1.75;;;;;;;;;;5012584;28;20018;-89
2023/10/31 06:24:51;;;;;;;6.72;1.27;;;;;;;;;;5012541;28;20020;-89
2023/10/31 06:27:16;;;;;;;4.93;1.30;;;;;;;;;;5012604;28;20112;-89
2023/10/31 06:29:41;;;;;;;5.03;1.47;;;;;;;;;;5012893;28;20259;-89
2023/10/31 06:32:07;;;;;;;8.77;1.53;;;;;;;;;;5011351;28;20350;-90
2023/10/31 06:34:32;;;;;;;9.18;2.08;;;;;;;;;;5011166;28;20287;-89
2023/10/31 06:36:58;;;;;;;4.65;1.73;;;;;;;;;;5012472;28;20014;-89
2023/10/31 06:39:23;;;;;;;7.68;2.13;;;;;;;;;;5012269;28;20029;-89
2023/10/31 06:41:48;;;;;;;4.13;1.17;;;;;;;;;;5010913;28;20029;-89
2023/10/31 06:44:13;;;;;;;5.32;1.52;;;;;;;;;;5012240;28;20034;-89
2023/10/31 06:46:38;;;;;;;7.43;1.50;;;;;;;;;;5011053;28;20491;-89
2023/10/31 06:49:04;;;;;;;3.88;1.17;;;;;;;;;;5011084;28;20117;-89
2023/10/31 06:51:29;;;;;;;9.10;1.80;;;;;;;;;;5012168;28;20041;-88
2023/10/31 06:53:54;;;;;;;6.83;1.87;;;;;;;;;;5011116;28;20018;-89
2023/10/31 06:56:20;;;;;;;6.43;1.43;;;;;;;;;;5012028;28;20629;-92
2023/10/31 06:58:45;;;;;;;4.03;1.75;;;;;;;;;;5012133;28;20734;-89
2023/10/31 07:01:11;;;;;;;6.93;1.60;;;;;;;;;;5010788;28;20391;-90
2023/10/31 07:03:36;;;;;;;4.00;1.33;;;;;;;;;;5009858;28;20275;-90
2023/10/31 07:06:01;;;;;;;9.00;1.50;;;;;;;;;;5011961;28;20026;-91
2023/10/31 07:08:26;;;;;;;8.85;1.50;;;;;;;;;;5012208;28;20267;-90
2023/10/31 07:10:52;;;;;;;3.73;1.13;;;;;;;;;;5012054;28;20053;-91
2023/10/31 07:13:17;;;;;;;6.77;1.83;;;;;;;;;;5011831;28;20338;-90
2023/10/31 07:15:43;;;;;;;4.90;1.17;;;;;;;;;;5012161;28;20266;-90
2023/10/31 07:18:08;;;;;;;8.35;1.63;;;;;;;;;;5009729;28;20044;-91
2023/10/31 07:20:33;;;;;;;5.72;1.55;;;;;;;;;;5011541;28;20049;-90
2023/10/31 07:22:58;;;;;;;6.93;2.30;;;;;;;;;;5011988;28;20022;-90
2023/10/31 07:25:24;;;;;;;5.70;1.83;;;;;;;;;;5011880;28;20010;-90
2023/10/31 07:27:49;;;;;;;6.53;1.92;;;;;;;;;;5011967;28;20073;-91
2023/10/31 07:30:14;;;;;;;6.10;1.37;;;;;;;;;;5011782;28;20045;-91
2023/10/31 07:32:39;;;;;;;8.38;1.38;;;;;;;;;;5010584;28;20602;-90
2023/10/31 07:35:05;;;;;;;5.38;1.30;;;;;;;;;;5010373;28;20040;-90
2023/10/31 07:37:30;;;;;;;3.97;1.05;;;;;;;;;;5012037;28;20072;-90
2023/10/31 07:39:55;;;;;;;9.97;2.07;;;;;;;;;;5010538;28;20530;-90
2023/10/31 07:42:20;;;;;;;8.93;1.80;;;;;;;;;;5011660;28;20255;-90
2023/10/31 07:44:46;;;;;;;7.17;1.93;;;;;;;;;;5010076;28;20487;-90
2023/10/31 07:47:11;;;;;;;5.97;1.60;;;;;;;;;;5010264;28;20262;-90
2023/10/31 07:49:36;;;;;;;3.80;1.25;;;;;;;;;;5008653;28;20279;-90
2023/10/31 07:52:01;;;;;;;4.60;1.20;;;;;;;;;;5010231;28;20028;-90
2023/10/31 07:54:26;;;;;;;9.37;3.07;;;;;;;;;;5011196;28;20295;-90
2023/10/31 07:56:52;;;;;;;7.32;1.85;;;;;;;;;;5010215;28;20267;-91
2023/10/31 07:59:17;;;;;;;7.15;1.60;;;;;;;;;;5011560;28;20041;-90
2023/10/31 08:01:42;;;;;;;6.40;1.80;;;;;;;;;;5011288;28;20105;-90
2023/10/31 08:04:08;;;;;;;8.50;2.20;;;;;;;;;;5010362;28;20026;-90
2023/10/31 08:06:33;;;;;;;7.00;1.33;;;;;;;;;;5013697;28;20071;-90
2023/10/31 08:08:59;;;;;;;7.38;1.52;;;;;;;;;;5015074;28;20109;-90
2023/10/31 08:11:24;;;;;;;9.50;1.45;;;;;;;;;;5014794;28;20044;-90
2023/10/31 08:13:49;;;;;;;5.83;2.10;;;;;;;;;;5014666;28;20041;-90
2023/10/31 08:16:19;;;;;;;6.30;1.70;;;;;;;;;;5014773;28;20274;-90
2023/10/31 08:18:44;;;;;;;5.93;1.60;;;;;;;;;;5014275;28;20251;-90
2023/10/31 08:21:11;;;;;;;7.47;1.40;;;;;;;;;;5013582;28;20052;-90
2023/10/31 08:23:36;;;;;;;9.68;2.42;;;;;;;;;;5014599;28;20473;-91
2023/10/31 08:26:01;;;;;;;6.45;1.45;;;;;;;;;;5014730;28;20033;-91
2023/10/31 08:28:27;;;;;;;7.75;2.10;;;;;;;;;;5014717;28;20485;-90
2023/10/31 08:30:52;;;;;;;7.90;1.98;;;;;;;;;;5014586;28;20018;-90
2023/10/31 08:33:17;;;;;;;13.27;1.70;;;;;;;;;;5014308;28;20468;-90
2023/10/31 08:35:43;;;;;;;2.83;0.93;;;;;;;;;;5012400;28;20432;-90
2023/10/31 08:38:09;;;;;;;7.20;1.40;;;;;;;;;;5014331;28;20025;-90
2023/10/31 08:40:34;;;;;;;6.13;1.70;;;;;;;;;;5014572;28;20105;-90
2023/10/31 08:43:00;;;;;;;6.57;1.52;;;;;;;;;;5014291;28;20346;-91
2023/10/31 08:45:25;;;;;;;8.23;2.00;;;;;;;;;;5014288;28;20036;-90
2023/10/31 08:47:51;;;;;;;4.05;1.25;;;;;;;;;;5014384;28;20461;-90
2023/10/31 08:50:16;;;;;;;5.55;1.80;;;;;;;;;;5013255;28;20064;-90
2023/10/31 08:52:41;;;;;;;5.22;1.30;;;;;;;;;;5013993;28;20025;-91
2023/10/31 08:55:07;;;;;;;5.93;1.40;;;;;;;;;;5014467;28;20048;-91
2023/10/31 08:57:33;;;;;;;7.88;1.65;;;;;;;;;;5012130;28;20026;-89
2023/10/31 08:59:58;;;;;;;3.65;1.10;;;;;;;;;;5013765;28;20073;-90
2023/10/31 09:02:24;;;;;;;11.52;1.60;;;;;;;;;;5011704;28;20395;-90
2023/10/31 09:04:49;;;;;;;4.03;1.37;;;;;;;;;;5012569;28;20021;-89
2023/10/31 09:07:14;;;;;;;5.77;1.33;;;;;;;;;;5013525;28;20271;-89
2023/10/31 09:09:39;;;;;;;4.13;1.10;;;;;;;;;;5012559;28;20256;-89
2023/10/31 09:12:05;;;;;;;3.67;1.02;;;;;;;;;;5012712;28;20260;-90
2023/10/31 09:14:30;;;;;;;3.72;1.10;;;;;;;;;;5012405;28;20112;-92
2023/10/31 09:16:56;;;;;;;7.57;1.45;;;;;;;;;;5009826;28;20025;-94
2023/10/31 09:19:21;;;;;;;8.27;1.77;;;;;;;;;;4999624;28;20022;-92
2023/10/31 09:21:46;;;;;;;4.40;1.27;;;;;;;;;;4994223;28;20248;-93
2023/10/31 09:24:11;;;;;;;3.30;1.48;;;;;;;;;;4992744;28;20260;-93
2023/10/31 09:26:37;;;;;;;3.25;0.80;;;;;;;;;;4992575;28;20041;-93
2023/10/31 09:29:03;;;;;;;6.93;1.60;;;;;;;;;;5009437;28;20089;-92
2023/10/31 09:31:28;;;;;;;3.30;1.35;;;;;;;;;;5012603;28;20022;-93
2023/10/31 09:33:54;;;;;;;1.90;0.40;;;;;;;;;;5012081;28;20044;-93
2023/10/31 09:36:19;;;;;;;6.97;0.87;;;;;;;;;;5013111;28;20093;-94
2023/10/31 09:38:45;;;;;;;5.93;1.17;;;;;;;;;;5012737;28;20295;-94
2023/10/31 09:41:11;;;;;;;4.75;0.63;;;;;;;;;;5013223;28;20033;-93
2023/10/31 09:43:37;;;;;;;5.07;0.68;;;;;;;;;;5013030;28;20045;-92
2023/10/31 09:46:03;;;;;;;1.90;0.50;;;;;;;;;;5011365;28;20461;-91
2023/10/31 09:48:29;;;;;;;8.35;1.27;;;;;;;;;;5011891;28;20105;-91
2023/10/31 09:50:54;;;;;;;2.45;0.70;;;;;;;;;;5012587;28;20120;-92
2023/10/31 09:53:19;;;;;;;2.60;0.55;;;;;;;;;;5012117;28;20515;-92
2023/10/31 09:55:46;;;;;;;6.03;0.73;;;;;;;;;;5012798;28;20552;-92
2023/10/31 09:58:11;;;;;;;5.72;0.68;;;;;;;;;;5011279;28;20287;-92
2023/10/31 10:00:37;;;;;;;5.22;0.77;;;;;;;;;;5011968;28;20107;-92
2023/10/31 10:03:03;;;;;;;3.90;0.88;;;;;;;;;;5010592;28;20028;-93
2023/10/31 10:05:31;;;;;;;3.72;0.80;;;;;;;;;;5008918;28;20498;-92
2023/10/31 10:07:56;;;;;;;2.22;0.75;;;;;;;;;;5011495;28;20057;-92
2023/10/31 10:10:21;;;;;;;5.95;1.27;;;;;;;;;;5010616;28;20048;-93
2023/10/31 10:12:47;;;;;;;8.95;3.35;;;;;;;;;;5012368;28;20053;-91
2023/10/31 10:15:12;;;;;;;7.68;2.80;;;;;;;;;;5010444;28;20030;-92
2023/10/31 10:17:39;;;;;;;5.43;2.10;;;;;;;;;;5011361;28;20026;-93
2023/10/31 10:20:06;;;;;;;3.70;1.15;;;;;;;;;;5011414;28;20268;-93
2023/10/31 10:22:31;;;;;;;2.13;0.93;;;;;;;;;;5010406;28;20113;-91
2023/10/31 10:24:57;;;;;;;5.07;0.75;;;;;;;;;;5010332;28;20112;-91
2023/10/31 10:27:22;;;;;;;2.50;0.47;;;;;;;;;;5011954;28;20030;-92
2023/10/31 10:29:47;;;;;;;2.10;0.50;;;;;;;;;;5010477;28;20026;-91
2023/10/31 10:32:13;;;;;;;2.43;0.40;;;;;;;;;;5011592;28;20255;-91
2023/10/31 10:34:38;;;;;;;11.65;6.13;;;;;;;;;;5012264;28;20283;-91
2023/10/31 10:37:05;;;;;;;7.47;1.20;;;;;;;;;;5012184;28;20380;-90
2023/10/31 10:39:32;;;;;;;10.63;1.25;;;;;;;;;;5009786;28;20354;-92
2023/10/31 10:42:00;;;;;;;2.95;0.80;;;;;;;;;;5011496;28;20022;-90
2023/10/31 10:44:29;;;;;;;4.63;0.77;;;;;;;;;;5003258;28;20053;-90
2023/10/31 10:46:55;;;;;;;5.10;0.45;;;;;;;;;;5010209;28;20022;-92
2023/10/31 10:49:24;;;;;;;4.30;0.80;;;;;;;;;;5012211;28;20021;-93
2023/10/31 10:51:54;;;;;;;5.40;0.80;;;;;;;;;;5012005;28;20068;-91
2023/10/31 10:54:22;;;;;;;3.97;0.60;;;;;;;;;;5009762;28;20061;-92
2023/10/31 10:57:08;;;;;;;5.30;0.88;;;;;;;;;;5010383;28;20054;-92
2023/10/31 10:59:41;;;;;;;6.78;0.60;;;;;;;;;;4984766;28;20495;-91
2023/10/31 11:02:06;;;;;;;6.90;0.63;;;;;;;;;;4997393;28;20021;-92
2023/10/31 11:04:31;;;;;;;6.25;0.77;;;;;;;;;;5011644;28;20388;-92
2023/10/31 11:06:57;;;;;;;2.83;0.32;;;;;;;;;;5011113;28;20022;-91
2023/10/31 11:09:23;;;;;;;5.00;0.77;;;;;;;;;;5011870;28;20037;-92
2023/10/31 11:11:50;;;;;;;2.50;0.60;;;;;;;;;;5011992;28;20018;-91
2023/10/31 11:14:16;;;;;;;4.97;0.43;;;;;;;;;;5010952;28;20084;-91
2023/10/31 11:16:44;;;;;;;2.83;0.60;;;;;;;;;;5010999;28;20022;-92
2023/10/31 11:19:10;;;;;;;2.47;0.38;;;;;;;;;;5010780;28;20109;-91
2023/10/31 11:21:35;;;;;;;3.45;0.63;;;;;;;;;;5011799;28;20018;-92
2023/10/31 11:24:01;;;;;;;5.55;0.70;;;;;;;;;;5010458;28;20087;-92
2023/10/31 11:26:27;;;;;;;8.57;1.25;;;;;;;;;;5011838;28;20025;-92
2023/10/31 11:28:52;;;;;;;4.93;0.60;;;;;;;;;;5012110;28;20014;-92
2023/10/31 11:31:17;;;;;;;3.17;0.82;;;;;;;;;;5011843;28;20022;-92
2023/10/31 11:33:43;;;;;;;2.87;0.50;;;;;;;;;;5010604;28;20037;-92
2023/10/31 11:36:10;;;;;;;5.22;0.70;;;;;;;;;;5011852;28;20313;-91
2023/10/31 11:38:36;;;;;;;4.40;0.80;;;;;;;;;;5010434;28;20196;-91
2023/10/31 11:41:02;;;;;;;6.05;1.35;;;;;;;;;;5010391;28;20121;-91
2023/10/31 11:43:50;;;;;;;3.83;0.60;;;;;;;;;;5015290;28;20022;-92
2023/10/31 11:46:20;;;;;;;6.47;1.10;;;;;;;;;;5015596;28;20014;-90
2023/10/31 11:48:51;;;;;;;6.85;1.10;;;;;;;;;;5015488;28;20038;-92
2023/10/31 11:51:16;;;;;;;6.90;1.30;;;;;;;;;;5015489;28;20029;-91
2023/10/31 11:53:43;;;;;;;4.60;0.87;;;;;;;;;;5015331;28;20034;-91
2023/10/31 11:56:09;;;;;;;7.65;1.23;;;;;;;;;;5013135;28;20360;-91
2023/10/31 11:58:35;;;;;;;8.02;1.23;;;;;;;;;;5015237;28;20029;-91
2023/10/31 12:01:04;;;;;;;6.10;1.20;;;;;;;;;;5013865;28;20021;-91
2023/10/31 12:03:36;;;;;;;9.30;1.20;;;;;;;;;;5013991;28;20260;-92
2023/10/31 12:06:01;;;;;;;3.75;1.13;;;;;;;;;;5013823;28;20104;-91
2023/10/31 12:08:31;;;;;;;5.20;0.95;;;;;;;;;;5013920;28;20054;-91
2023/10/31 12:11:22;;;;;;;9.98;1.45;;;;;;;;;;5014031;28;20022;-91
2023/10/31 12:13:55;;;;;;;4.72;0.80;;;;;;;;;;5009651;28;20204;-92
2023/10/31 12:16:22;;;;;;;6.10;0.90;;;;;;;;;;5014943;28;20136;-92
2023/10/31 12:18:53;;;;;;;5.00;0.70;;;;;;;;;;5015043;28;20022;-92
2023/10/31 12:21:19;;;;;;;5.72;0.98;;;;;;;;;;5014967;28;20014;-92
2023/10/31 12:23:44;;;;;;;3.40;0.50;;;;;;;;;;5014909;28;20033;-92
2023/10/31 12:26:10;;;;;;;6.73;0.93;;;;;;;;;;5011915;28;20325;-91
2023/10/31 12:28:37;;;;;;;5.45;0.82;;;;;;;;;;5014425;28;20294;-92
2023/10/31 12:31:03;;;;;;;4.20;1.08;;;;;;;;;;5014666;28;20017;-91
2023/10/31 12:33:28;;;;;;;5.18;0.70;;;;;;;;;;5013249;28;20030;-92
2023/10/31 12:36:00;;;;;;;4.50;0.90;;;;;;;;;;5014669;28;20104;-92
2023/10/31 12:38:26;;;;;;;3.72;0.70;;;;;;;;;;5014435;28;20044;-91
2023/10/31 12:40:51;;;;;;;2.92;0.50;;;;;;;;;;5013508;28;20049;-91
2023/10/31 12:43:17;;;;;;;2.63;0.47;;;;;;;;;;5014126;28;20452;-92
2023/10/31 12:45:42;;;;;;;3.03;0.63;;;;;;;;;;5013234;28;20018;-91
2023/10/31 12:48:08;;;;;;;4.17;0.83;;;;;;;;;;5014290;28;20379;-92
2023/10/31 12:50:37;;;;;;;1.83;0.45;;;;;;;;;;5014417;28;20022;-91
2023/10/31 12:53:03;;;;;;;9.75;1.20;;;;;;;;;;5012996;28;20014;-91
2023/10/31 12:55:29;;;;;;;4.93;0.90;;;;;;;;;;5014052;28;20040;-92
2023/10/31 12:57:54;;;;;;;4.80;0.70;;;;;;;;;;5012123;28;20076;-92
2023/10/31 13:00:26;;;;;;;4.63;0.98;;;;;;;;;;5014205;28;20071;-92
2023/10/31 13:02:58;;;;;;;5.85;0.73;;;;;;;;;;5014092;28;20017;-92
2023/10/31 13:05:25;;;;;;;5.00;1.23;;;;;;;;;;5014155;28;20561;-92
2023/10/31 13:07:52;;;;;;;7.82;1.80;;;;;;;;;;5014121;28;20492;-91
2023/10/31 13:10:17;;;;;;;7.45;0.63;;;;;;;;;;5012820;28;20049;-91
2023/10/31 13:12:43;;;;;;;3.67;0.73;;;;;;;;;;5013319;28;20026;-92
2023/10/31 13:15:09;;;;;;;6.10;0.93;;;;;;;;;;5013990;28;20112;-91
2023/10/31 13:17:37;;;;;;;3.80;0.88;;;;;;;;;;5012411;28;20182;-91
2023/10/31 13:20:03;;;;;;;4.25;1.10;;;;;;;;;;5012545;28;20054;-92
2023/10/31 13:22:28;;;;;;;3.22;0.50;;;;;;;;;;5012096;28;20623;-91
2023/10/31 13:24:54;;;;;;;4.33;0.77;;;;;;;;;;5013257;28;20127;-91
2023/10/31 13:27:19;;;;;;;4.80;1.38;;;;;;;;;;5011913;28;20342;-91
2023/10/31 13:29:48;;;;;;;5.60;0.68;;;;;;;;;;5012442;28;20018;-92
2023/10/31 13:32:13;;;;;;;2.80;0.70;;;;;;;;;;5013376;28;20033;-91
2023/10/31 13:34:38;;;;;;;3.83;0.70;;;;;;;;;;5011526;28;20037;-92
2023/10/31 13:37:03;;;;;;;7.07;1.10;;;;;;;;;;5011755;28;20510;-91
2023/10/31 13:39:29;;;;;;;6.28;1.15;;;;;;;;;;5012924;28;20014;-93
2023/10/31 13:41:54;;;;;;;5.47;0.87;;;;;;;;;;5012317;28;20108;-93
2023/10/31 13:44:19;;;;;;;9.60;1.33;;;;;;;;;;5025908;28;20255;-91
2023/10/31 13:46:45;;;;;;;9.55;0.80;;;;;;;;;;5000769;28;20384;-91
2023/10/31 13:49:12;;;;;;;3.75;1.20;;;;;;;;;;4996243;28;20026;-92
2023/10/31 13:51:37;;;;;;;5.93;0.70;;;;;;;;;;5013119;28;20022;-91
2023/10/31 13:54:02;;;;;;;4.13;0.83;;;;;;;;;;5012775;28;20464;-91
2023/10/31 13:56:27;;;;;;;7.10;1.17;;;;;;;;;;5012837;28;20621;-92
2023/10/31 13:58:53;;;;;;;2.67;0.60;;;;;;;;;;5010449;28;20402;-91
2023/10/31 14:01:24;;;;;;;7.37;0.80;;;;;;;;;;5010823;28;20848;-91
2023/10/31 14:03:50;;;;;;;8.18;0.88;;;;;;;;;;5012763;28;20262;-91
2023/10/31 14:06:15;;;;;;;10.35;1.23;;;;;;;;;;5011150;28;20120;-91
2023/10/31 14:08:40;;;;;;;4.85;0.80;;;;;;;;;;5011578;28;20102;-93
2023/10/31 14:11:05;;;;;;;5.82;1.08;;;;;;;;;;5005232;28;20022;-93
2023/10/31 14:13:30;;;;;;;7.63;0.97;;;;;;;;;;5008816;28;20030;-93
2023/10/31 14:15:56;;;;;;;7.03;0.77;;;;;;;;;;5011483;28;20274;-92
2023/10/31 14:18:21;;;;;;;4.20;0.80;;;;;;;;;;5015047;28;20258;-92
2023/10/31 14:20:46;;;;;;;6.03;0.97;;;;;;;;;;5013880;28;20262;-92
2023/10/31 14:23:11;;;;;;;6.63;0.80;;;;;;;;;;5011368;28;20259;-94
2023/10/31 14:25:38;;;;;;;3.57;0.53;;;;;;;;;;5010752;28;20258;-92
2023/10/31 14:28:04;;;;;;;7.78;1.50;;;;;;;;;;5010892;28;20256;-92
2023/10/31 14:30:29;;;;;;;4.07;1.65;;;;;;;;;;5011352;28;20539;-92
2023/10/31 14:32:54;;;;;;;6.07;1.30;;;;;;;;;;5012603;28;20036;-93
2023/10/31 14:35:19;;;;;;;4.20;1.00;;;;;;;;;;5011221;28;20290;-92